• Join FlightAware (Why Join?)
  • Login
  • US Flag 
07:12PM EDT


 

Airport Tracker/Info


-or-


 

Live Flight TrackerFlight Track Log ✈ UAL902 ✈ 23-Apr-2013 ✈ KIAD - EDDM / MUC

Flight Track Log - Related Links

Times and Time Zones

All times are in EDT time to prevent confusion due to time zone crossing. See the UAL902 flight status page for this flight to view local times or setup timezone preferences in your user account.

Time Position Orientation Groundspeed Altitude Reporting Facility
EDT Latitude Longitude Course Direction KTS MPH feet Rate Location/Type
05:22PM 39.0170 -77.4490 348° North 234 269 2,800  Level FlightAware
05:23PM 39.0480 -77.4560 350° North 244 281 4,300 3,060 Climbing FlightAware
05:23PM 39.0680 -77.4610 349° North 261 300 5,100 3,060 Climbing FlightAware
05:23PM 39.0900 -77.4650 352° North 259 298 6,100 3,000 Climbing FlightAware
05:24PM 39.1350 -77.4550 10° North 281 323 7,900 3,180 Climbing FlightAware
05:24PM 39.1440 -77.4410 50° Northeast 286 329 8,500 3,600 Climbing FlightAware
05:24PM 39.1510 -77.4140 72° East 289 333 9,400 1,260 Climbing FlightAware
05:25PM 39.1470 -77.3320 94° East 356 410 9,800 300 Climbing FlightAware
05:26PM 39.1340 -77.2680 105° East 359 413 9,800  Level FlightAware
05:26PM 39.1260 -77.2150 101° East 356 410 9,800 1,260 Level FlightAware
05:27PM 39.1120 -77.1230 101° East 375 432 11,300 2,400 Climbing FlightAware
05:27PM 39.0990 -77.0300 100° East 390 449 13,200 2,820 Climbing FlightAware
05:28PM 39.0950 -76.9440 93° East 397 457 15,100 3,420 Climbing FlightAware
05:29PM 39.1040 -76.8296 84° East 384 442 17,800 3,240 Climbing FlightAware ADS-B
05:29PM 39.1095 -76.7534 85° East 393 452 19,100 2,340 Climbing FlightAware ADS-B
05:30PM 39.1149 -76.6821 84° East 398 458 20,300 2,220 Climbing FlightAware ADS-B
05:30PM 39.1208 -76.6106 84° East 406 467 21,400 2,040 Climbing FlightAware ADS-B
05:31PM 39.1270 -76.5351 84° East 415 478 22,400 1,560 Climbing FlightAware ADS-B
05:31PM 39.1332 -76.4592 84° East 425 489 23,000 540 Climbing FlightAware ADS-B
05:32PM 39.1398 -76.3765 84° East 414 476 23,000  Level FlightAware ADS-B
05:32PM 39.1459 -76.3008 84° East 413 475 23,000  Level FlightAware ADS-B
05:33PM 39.1518 -76.2250 84° East 414 476 23,000  Level FlightAware ADS-B
05:33PM 39.1560 -76.1814 83° East 415 478 23,000  Level FlightAware ADS-B
05:34PM 39.1652 -76.1074 81° East 424 488 23,000  Level FlightAware ADS-B
05:34PM 39.1758 -76.0210 81° East 441 507 23,000 540 Level FlightAware ADS-B
05:35PM 39.1848 -75.9409 82° East 441 507 23,600 1,260 Climbing FlightAware ADS-B
05:35PM 39.1879 -75.9219 78° East 439 505 23,800 1,500 Climbing FlightAware ADS-B
05:35PM 39.1966 -75.8918 70° East 436 502 24,100 1,740 Climbing FlightAware ADS-B
05:35PM 39.2076 -75.8669 60° Northeast 431 496 24,500 2,160 Climbing FlightAware ADS-B
05:35PM 39.2178 -75.8488 54° Northeast 427 491 24,800 2,280 Climbing FlightAware ADS-B
05:36PM 39.2347 -75.8254 47° Northeast 421 484 25,300 1,860 Climbing FlightAware ADS-B
05:36PM 39.2775 -75.7688 46° Northeast 427 491 26,200 1,500 Climbing FlightAware ADS-B
05:37PM 39.3256 -75.7066 45° Northeast 433 498 27,000 2,280 Climbing FlightAware ADS-B
05:37PM 39.3707 -75.6482 45° Northeast 417 480 28,800 2,520 Climbing FlightAware ADS-B
05:38PM 39.4127 -75.5943 45° Northeast 418 481 29,700 1,500 Climbing FlightAware ADS-B
05:38PM 39.4572 -75.5369 45° Northeast 424 488 30,400 1,140 Climbing FlightAware ADS-B
05:39PM 39.5061 -75.4731 45° Northeast 428 493 31,000 1,080 Climbing FlightAware ADS-B
05:39PM 39.5488 -75.4171 45° Northeast 440 506 31,600 840 Climbing FlightAware ADS-B
05:40PM 39.5960 -75.3553 45° Northeast 454 522 31,900 780 Climbing FlightAware ADS-B
05:41PM 39.6445 -75.2917 45° Northeast 460 529 32,500 1,260 Climbing FlightAware ADS-B
05:41PM 39.6905 -75.2273 47° Northeast 461 531 33,300 1,500 Climbing FlightAware ADS-B
05:42PM 39.7352 -75.1627 48° Northeast 459 528 34,100 1,500 Climbing FlightAware ADS-B
05:42PM 39.7779 -75.1016 48° Northeast 450 518 34,900 780 Climbing FlightAware ADS-B
05:43PM 39.8308 -75.0264 47° Northeast 453 521 35,000 60 Climbing FlightAware ADS-B
05:43PM 39.8770 -74.9612 47° Northeast 457 526 35,000  Level FlightAware ADS-B
05:44PM 39.9224 -74.8967 47° Northeast 460 529 35,000  Level FlightAware ADS-B
05:44PM 39.9772 -74.8186 48° Northeast 465 535 35,000  Level FlightAware ADS-B
05:45PM 39.9917 -74.7975 48° Northeast 467 537 35,000  Level FlightAware ADS-B
05:45PM 40.0027 -74.7787 53° Northeast 469 540 35,000  Level FlightAware ADS-B
05:45PM 40.0106 -74.7625 58° Northeast 470 541 35,000  Level FlightAware ADS-B
05:45PM 40.0162 -74.7488 62° Northeast 470 541 35,000  Level FlightAware ADS-B
05:45PM 40.0242 -74.7249 66° East 469 540 35,000  Level FlightAware ADS-B
05:46PM 40.0419 -74.6407 75° East 471 542 35,000  Level FlightAware ADS-B
05:46PM 40.0596 -74.5661 73° East 477 549 35,000  Level FlightAware ADS-B
05:47PM 40.0829 -74.4801 70° East 479 551 35,000  Level FlightAware ADS-B
05:47PM 40.1068 -74.3918 70° East 481 554 35,000  Level FlightAware ADS-B
05:48PM 40.1330 -74.3047 68° East 487 560 35,000  Level FlightAware ADS-B
05:48PM 40.1594 -74.2170 68° East 488 562 35,000  Level FlightAware ADS-B
05:49PM 40.1967 -74.0891 69° East 488 562 35,000  Level FlightAware ADS-B
05:50PM 40.2288 -73.9768 69° East 489 563 35,000  Level FlightAware ADS-B
05:50PM 40.2600 -73.8680 69° East 487 560 35,000  Level FlightAware
05:51PM 40.2715 -73.8273 70° East 487 560 35,000  Level FlightAware ADS-B
05:51PM 40.3035 -73.7144 70° East 485 558 35,000  Level FlightAware ADS-B
05:52PM 40.3271 -73.6315 69° East 483 556 35,000  Level FlightAware ADS-B
05:52PM 40.3563 -73.5286 70° East 481 554 35,000  Level FlightAware ADS-B
05:53PM 40.3815 -73.4388 70° East 480 552 35,000  Level FlightAware ADS-B
05:54PM 40.4160 -73.3174 69° East 478 550 35,000  Level FlightAware ADS-B
05:55PM 40.4530 -73.1850 70° East 475 547 35,000  Level FlightAware
05:55PM 40.4865 -73.0653 70° East 475 547 35,000  Level FlightAware ADS-B
05:56PM 40.5125 -72.9711 70° East 474 545 35,000  Level FlightAware ADS-B
05:57PM 40.5509 -72.8324 70° East 476 548 35,000  Level FlightAware ADS-B
05:57PM 40.5750 -72.7446 70° East 476 548 35,000  Level FlightAware ADS-B
05:58PM 40.6090 -72.6190 70° East 478 550 35,000  Level FlightAware
05:59PM 40.6380 -72.5143 70° East 480 552 35,000  Level FlightAware ADS-B
05:59PM 40.6730 -72.3840 70° East 482 555 35,000  Level FlightAware
06:00PM 40.7040 -72.2710 70° East 484 557 35,000  Level FlightAware
06:01PM 40.7267 -72.1864 70° East 484 557 35,000  Level FlightAware ADS-B
06:01PM 40.7551 -72.0804 70° East 484 557 35,000  Level FlightAware ADS-B
06:02PM 40.7900 -71.9490 71° East 490 564 35,000  Level FlightAware
06:03PM 40.8190 -71.8390 71° East 491 565 35,000  Level FlightAware
06:03PM 40.8490 -71.7290 70° East 493 567 35,000  Level FlightAware
06:04PM 40.8810 -71.6060 71° East 493 567 35,000  Level FlightAware
06:05PM 40.9110 -71.4890 71° East 494 568 35,000  Level FlightAware
06:06PM 40.9800 -71.2940 65° Northeast 507 583 35,000  Level FlightAware
06:07PM 41.0810 -71.1440 48° Northeast 521 600 35,000  Level FlightAware
06:08PM 41.1360 -71.0590 49° Northeast 521 600 35,000  Level FlightAware
06:09PM 41.2200 -70.9310 49° Northeast 523 602 35,000  Level FlightAware
06:09PM 41.2870 -70.8280 49° Northeast 524 603 35,000  Level FlightAware
06:10PM 41.3510 -70.7290 49° Northeast 524 603 35,000  Level FlightAware
06:11PM 41.4230 -70.6190 49° Northeast 524 603 35,000  Level FlightAware
06:11PM 41.4860 -70.5210 49° Northeast 524 603 35,000  Level FlightAware
06:12PM 41.5540 -70.4160 49° Northeast 524 603 35,000  Level FlightAware
06:13PM 41.6120 -70.3250 50° Northeast 524 603 35,000  Level FlightAware
06:13PM 41.6760 -70.2200 51° Northeast 518 596 35,000  Level FlightAware
06:14PM 41.7480 -70.1040 50° Northeast 520 598 35,000  Level FlightAware
06:15PM 41.8180 -69.9900 50° Northeast 520 598 35,000  Level FlightAware
06:16PM 41.8790 -69.8900 51° Northeast 520 598 35,000  Level FlightAware
06:16PM 41.9400 -69.7900 51° Northeast 520 598 35,000  Level FlightAware
06:17PM 42.0110 -69.6730 51° Northeast 522 601 35,000  Level FlightAware
06:18PM 42.0600 -69.5930 50° Northeast 523 602 35,000  Level FlightAware
06:18PM 42.1430 -69.4560 51° Northeast 524 603 35,000  Level FlightAware
06:19PM 42.1940 -69.3700 51° Northeast 524 603 35,000  Level FlightAware
06:20PM 42.2660 -69.2500 51° Northeast 524 603 35,000  Level FlightAware
06:21PM 42.3460 -69.1160 51° Northeast 525 604 35,000  Level FlightAware
06:21PM 42.4090 -69.0110 51° Northeast 525 604 35,000  Level FlightAware
06:22PM 42.4750 -68.8990 51° Northeast 525 604 35,000  Level FlightAware
06:23PM 42.5320 -68.8040 51° Northeast 523 602 35,000  Level FlightAware
06:23PM 42.6050 -68.6780 52° Northeast 523 602 35,000  Level FlightAware
06:24PM 42.6560 -68.5900 52° Northeast 523 602 35,000  Level FlightAware
06:25PM 42.7070 -68.5020 52° Northeast 523 602 35,000  Level FlightAware
06:25PM 42.7570 -68.4130 53° Northeast 523 602 35,000  Level FlightAware
06:26PM 42.8620 -68.2390 51° Northeast 522 601 35,000  Level FlightAware
06:27PM 42.9100 -68.1580 51° Northeast 522 601 35,000  Level FlightAware
06:28PM 42.9620 -68.0710 51° Northeast 522 601 35,000  Level FlightAware
06:28PM 43.0450 -67.9220 53° Northeast 519 597 35,000  Level FlightAware
06:29PM 43.1110 -67.8070 52° Northeast 512 589 35,000  Level FlightAware
06:30PM 43.1700 -67.7020 52° Northeast 512 589 35,000  Level FlightAware
06:31PM 43.2590 -67.5460 52° Northeast 512 589 35,000  Level FlightAware
06:31PM 43.3170 -67.4430 52° Northeast 512 589 35,000  Level FlightAware
06:32PM 43.3750 -67.3400 52° Northeast 513 590 35,000  Level FlightAware
06:33PM 43.4430 -67.2190 52° Northeast 515 593 35,000  Level FlightAware
06:33PM 43.4990 -67.1180 53° Northeast 515 593 35,000  Level FlightAware
06:34PM 43.5660 -66.9970 53° Northeast 516 594 35,000  Level FlightAware
06:35PM 43.6220 -66.8920 54° Northeast 522 601 35,000  Level FlightAware
06:36PM 43.6850 -66.7710 54° Northeast 522 601 35,000  Level FlightAware
06:36PM 43.7430 -66.6610 54° Northeast 524 603 35,000  Level FlightAware
06:37PM 43.7980 -66.5560 54° Northeast 525 604 35,000  Level FlightAware
06:38PM 43.8640 -66.4290 54° Northeast 527 606 35,000  Level FlightAware
06:38PM 43.9210 -66.3180 54° Northeast 528 608 35,000  Level FlightAware
06:39PM 43.9790 -66.2070 54° Northeast 529 609 35,000  Level FlightAware
06:40PM 44.0420 -66.0840 55° Northeast 531 611 35,000  Level FlightAware
06:40PM 44.1000 -65.9700 55° Northeast 532 612 35,000  Level FlightAware
06:41PM 44.1640 -65.8450 54° Northeast 533 613 35,000  Level FlightAware
06:42PM 44.2220 -65.7320 54° Northeast 533 613 35,000  Level FlightAware
06:43PM 44.2790 -65.6200 55° Northeast 533 613 35,000  Level FlightAware
06:43PM 44.3430 -65.4910 55° Northeast 533 613 35,000  Level FlightAware
06:44PM 44.3990 -65.3800 55° Northeast 532 612 35,000  Level FlightAware
06:45PM 44.4620 -65.2540 55° Northeast 533 613 35,000  Level FlightAware
06:45PM 44.5190 -65.1400 55° Northeast 533 613 35,000  Level FlightAware
06:46PM 44.5730 -65.0310 55° Northeast 533 613 35,000  Level FlightAware
06:47PM 44.6360 -64.9040 55° Northeast 533 613 35,000  Level FlightAware
06:47PM 44.6950 -64.7830 56° Northeast 533 613 35,000  Level FlightAware
06:48PM 44.7520 -64.6670 55° Northeast 533 613 35,000  Level FlightAware
06:49PM 44.8120 -64.5440 55° Northeast 532 612 35,000  Level FlightAware
06:50PM 44.8670 -64.4300 56° Northeast 532 612 35,000  Level FlightAware
06:50PM 44.9320 -64.2960 56° Northeast 531 611 35,000  Level FlightAware
06:51PM 44.9850 -64.1870 55° Northeast 531 611 35,000  Level FlightAware
06:52PM 45.0390 -64.0740 56° Northeast 530 610 35,000  Level FlightAware
06:53PM 45.1240 -63.8960 56° Northeast 530 610 35,000  Level FlightAware
06:54PM 45.2190 -63.6950 56° Northeast 529 609 35,000  Level FlightAware
06:54PM 45.2640 -63.5990 56° Northeast 529 609 35,000  Level FlightAware
06:55PM 45.3250 -63.4710 56° Northeast 528 608 35,000  Level FlightAware
06:56PM 45.3780 -63.3570 56° Northeast 528 608 35,000  Level FlightAware
06:57PM 45.4250 -63.2590 56° Northeast 528 608 35,000  Level FlightAware
06:57PM 45.4710 -63.1610 56° Northeast 528 608 35,000  Level FlightAware
06:58PM 45.5170 -63.0630 56° Northeast 528 608 35,000  Level FlightAware
06:59PM 45.5750 -62.9400 56° Northeast 528 608 35,000  Level FlightAware
06:59PM 45.6220 -62.8410 56° Northeast 528 608 35,000  Level FlightAware
07:00PM 45.6680 -62.7430 56° Northeast 528 608 35,000  Level FlightAware
07:01PM 45.7150 -62.6440 56° Northeast 528 608 35,000  Level FlightAware
07:01PM 45.7610 -62.5460 56° Northeast 528 608 35,000  Level FlightAware
07:02PM 45.8190 -62.4220 56° Northeast 528 608 35,000  Level FlightAware
07:03PM 45.8660 -62.3230 56° Northeast 528 608 35,000  Level FlightAware
07:04PM 45.9120 -62.2240 56° Northeast 528 608 35,000  Level FlightAware
07:04PM 46.0570 -61.8610 60° Northeast 528 608 35,000  Level FlightAware
07:05PM 46.1100 -61.7440 57° Northeast 528 608 35,000  Level FlightAware
07:06PM 46.1620 -61.6230 58° Northeast 529 609 35,000  Level FlightAware
07:06PM 46.2200 -61.4910 58° Northeast 530 610 35,000  Level FlightAware
07:07PM 46.2730 -61.3710 57° Northeast 531 611 35,000  Level FlightAware
07:08PM 46.3330 -61.2320 58° Northeast 531 611 35,000  Level FlightAware
07:08PM 46.3850 -61.1110 58° Northeast 531 611 35,000  Level FlightAware
07:09PM 46.4360 -60.9920 58° Northeast 531 611 35,000  Level FlightAware
07:10PM 46.4930 -60.8600 58° Northeast 531 611 35,000  Level FlightAware
07:11PM 46.5450 -60.7380 58° Northeast 532 612 35,000  Level FlightAware
07:11PM 46.6030 -60.6000 59° Northeast 531 611 35,000  Level FlightAware
07:12PM 46.6550 -60.4770 58° Northeast 531 611 35,000  Level FlightAware
07:13PM 46.7060 -60.3550 59° Northeast 531 611 35,000  Level FlightAware
07:13PM 46.7620 -60.2220 58° Northeast 531 611 35,000  Level FlightAware
07:14PM 46.8140 -60.0980 58° Northeast 530 610 35,000  Level FlightAware
07:15PM 46.8720 -59.9570 59° Northeast 528 608 35,000  Level FlightAware
07:15PM 46.9210 -59.8380 59° Northeast 528 608 35,000  Level FlightAware
07:16PM 46.9710 -59.7150 59° Northeast 527 606 35,000  Level FlightAware
07:17PM 47.0270 -59.5790 59° Northeast 526 605 35,000  Level FlightAware
07:18PM 47.0820 -59.4430 59° Northeast 525 604 35,000  Level FlightAware
07:18PM 47.1320 -59.3210 59° Northeast 523 602 35,000  Level FlightAware
07:19PM 47.1820 -59.1970 59° Northeast 523 602 35,000  Level FlightAware
07:20PM 47.2370 -59.0580 60° Northeast 523 602 35,000  Level FlightAware
07:20PM 47.2750 -58.9650 59° Northeast 523 602 35,000  Level FlightAware
07:21PM 47.3170 -58.8610 59° Northeast 523 602 35,000  Level FlightAware
07:22PM 47.3930 -58.6680 60° Northeast 522 601 35,000  Level FlightAware
07:23PM 47.4460 -58.5370 59° Northeast 522 601 35,000  Level FlightAware
07:23PM 47.4880 -58.4330 59° Northeast 522 601 35,000  Level FlightAware
07:24PM 47.5300 -58.3290 59° Northeast 522 601 35,000  Level FlightAware
07:25PM 47.5730 -58.2250 58° Northeast 522 601 35,000  Level FlightAware
07:25PM 47.6150 -58.1200 59° Northeast 522 601 35,000  Level FlightAware
07:26PM 47.6680 -57.9900 59° Northeast 522 601 35,000  Level FlightAware
07:27PM 47.7100 -57.8850 59° Northeast 522 601 35,000  Level FlightAware
07:28PM 47.7520 -57.7810 59° Northeast 522 601 35,000 1,500 Level FlightAware
07:28PM 47.8460 -57.4900 64° Northeast 518 596 37,000 1,320 Climbing FlightAware
07:29PM 47.9070 -57.3280 61° Northeast 517 595 37,000  Level FlightAware
07:30PM 47.9570 -57.1790 63° Northeast 522 601 37,000  Level FlightAware
07:30PM 47.9940 -57.0640 64° Northeast 522 601 37,000  Level FlightAware
07:31PM 48.0400 -56.9200 64° Northeast 522 601 37,000  Level FlightAware
07:32PM 48.0840 -56.7850 64° Northeast 521 600 37,000  Level FlightAware
07:33PM 48.1390 -56.6140 64° Northeast 522 601 37,000  Level FlightAware
07:33PM 48.1750 -56.5030 64° Northeast 522 601 37,000  Level FlightAware
07:34PM 48.2310 -56.3280 64° Northeast 525 604 37,000  Level FlightAware
07:35PM 48.2670 -56.2170 64° Northeast 525 604 37,000  Level FlightAware
07:36PM 48.3040 -56.1050 64° Northeast 525 604 37,000  Level FlightAware
07:36PM 48.3570 -55.9270 66° East 531 611 37,000  Level FlightAware
07:37PM 48.4010 -55.7930 64° Northeast 531 611 37,000  Level FlightAware
07:38PM 48.4370 -55.6800 64° Northeast 531 611 37,000  Level FlightAware
07:38PM 48.4740 -55.5670 64° Northeast 531 611 37,000  Level FlightAware
07:39PM 48.5400 -55.3360 67° East 529 609 37,000  Level FlightAware
07:40PM 48.5870 -55.1830 65° Northeast 528 608 37,000  Level FlightAware
07:41PM 48.6350 -55.0220 66° East 523 602 37,000  Level FlightAware
07:41PM 48.6800 -54.8730 65° Northeast 522 601 37,000  Level FlightAware
07:42PM 48.7210 -54.7350 66° East 520 598 37,000  Level FlightAware
07:43PM 48.7810 -54.5330 66° East 520 598 37,000  Level FlightAware
07:44PM 48.8280 -54.3750 66° East 518 596 37,000  Level FlightAware
07:45PM 48.8670 -54.2400 66° East 518 596 37,000  Level FlightAware
07:45PM 48.9100 -54.0910 66° East 519 597 37,000  Level FlightAware
07:46PM 48.9550 -53.9370 66° East 518 596 37,000  Level FlightAware
07:47PM 49.0070 -53.7580 66° East 516 594 37,000  Level FlightAware
07:48PM 49.0410 -53.6370 67° East 521 600 37,000  Level FlightAware
07:48PM 49.0890 -53.4690 66° East 527 606 37,000  Level FlightAware
07:49PM 49.1180 -53.3650 67° East 527 606 37,000  Level FlightAware
07:50PM 49.1770 -53.1550 67° East 527 606 37,000  Level FlightAware
07:51PM 49.2150 -53.0190 67° East 523 602 37,000  Level FlightAware
07:51PM 49.2610 -52.8530 67° East 525 604 37,000  Level FlightAware
07:52PM 49.2980 -52.7180 67° East 524 603 37,000  Level FlightAware
07:53PM 49.3270 -52.6130 67° East 524 603 37,000  Level FlightAware
07:54PM 49.3700 -52.4550 67° East 517 595 37,000  Level FlightAware
07:54PM 49.4190 -52.2750 67° East 517 595 37,000  Level FlightAware
07:55PM 49.4500 -52.1600 67° East 517 595 37,000  Level FlightAware
07:56PM 49.4820 -52.0450 67° East 517 595 37,000  Level FlightAware
07:57PM 49.5330 -51.8240 70° East 514 592 37,000  Level FlightAware
07:57PM 49.5560 -51.7050 73° East 508 585 37,000  Level FlightAware
07:58PM 49.6070 -51.4920 70° East 504 580 37,000  Level FlightAware
07:59PM 49.6330 -51.3870 69° East 504 580 37,000  Level FlightAware
08:00PM 49.6690 -51.2440 69° East 504 580 37,000  Level FlightAware
08:00PM 49.6833 -51.0833 69° East 500 575 37,000  Level Moncton Center
08:01PM 49.7167 -50.9500 69° East 500 575 37,000  Level Gander Center
08:01PM 49.7333 -50.8500 76° East 500 575 37,000  Level Moncton Center
08:02PM 49.7667 -50.7500 63° Northeast 500 575 37,000  Level Gander Center
08:03PM 49.8167 -50.5333 70° East 500 575 37,000  Level Gander Center
08:03PM 49.8333 -50.4667 69° East 490 564 37,000  Level Moncton Center
08:04PM 49.8833 -50.2667 69° East 500 575 37,000  Level Moncton Center
08:05PM 49.9167 -50.1500 66° East 500 575 37,000  Level Gander Center
08:05PM 49.9333 -50.0667 73° East 490 564 37,000  Level Moncton Center
08:06PM 49.9833 -49.8667 69° East 490 564 37,000  Level Moncton Center
08:07PM 50.0167 -49.7500 66° East 490 564 37,000  Level Gander Center
08:08PM 50.0500 -49.5500 75° East 490 564 37,000  Level Gander Center
08:09PM 50.1167 -49.3333 64° Northeast 490 564 37,000  Level Gander Center
08:10PM 50.1667 -49.1333 69° East 490 564 37,000  Level Gander Center
08:11PM 50.2167 -48.9333 69° East 490 564 37,000  Level Gander Center
08:12PM 50.2500 -48.7333 75° East 490 564 37,000  Level Gander Center
08:13PM 50.3000 -48.5667 65° Northeast 490 564 37,000  Level Gander Center
08:14PM 50.3500 -48.3500 70° East 500 575 37,000  Level Gander Center
08:15PM 50.4000 -48.1500 69° East 500 575 37,000  Level Gander Center
08:18PM 50.4877 -47.7800 69° East  Level FlightAware Approximate
08:25PM 50.8086 -46.3676 70° East  Level FlightAware Approximate
08:26PM 50.8530 -46.1643 71° East  Level FlightAware Approximate
08:27PM 50.8971 -45.9606 71° East  Level FlightAware Approximate
08:28PM 50.9409 -45.7565 71° East  Level FlightAware Approximate
08:29PM 50.9842 -45.5520 71° East  Level FlightAware Approximate
08:30PM 51.0273 -45.3471 71° East  Level FlightAware Approximate
08:31PM 51.0699 -45.1419 72° East  Level FlightAware Approximate
08:32PM 51.1122 -44.9362 72° East  Level FlightAware Approximate
08:33PM 51.1542 -44.7302 72° East  Level FlightAware Approximate
08:34PM 51.1957 -44.5239 72° East  Level FlightAware Approximate
08:35PM 51.2370 -44.3171 72° East  Level FlightAware Approximate
08:36PM 51.2778 -44.1100 72° East  Level FlightAware Approximate
08:37PM 51.3183 -43.9025 73° East  Level FlightAware Approximate
08:38PM 51.3584 -43.6947 73° East  Level FlightAware Approximate
08:39PM 51.3982 -43.4865 73° East  Level FlightAware Approximate
08:40PM 51.4375 -43.2779 73° East  Level FlightAware Approximate
08:41PM 51.4766 -43.0690 73° East  Level FlightAware Approximate
08:42PM 51.5152 -42.8597 73° East  Level FlightAware Approximate
08:43PM 51.5535 -42.6501 74° East  Level FlightAware Approximate
08:44PM 51.5914 -42.4401 74° East  Level FlightAware Approximate
08:45PM 51.6289 -42.2298 74° East  Level FlightAware Approximate
08:46PM 51.6660 -42.0191 74° East  Level FlightAware Approximate
08:47PM 51.7028 -41.8081 74° East  Level FlightAware Approximate
08:48PM 51.7392 -41.5967 74° East  Level FlightAware Approximate
08:49PM 51.7752 -41.3850 75° East  Level FlightAware Approximate
08:50PM 51.8108 -41.1730 75° East  Level FlightAware Approximate
08:51PM 51.8460 -40.9606 75° East  Level FlightAware Approximate
08:52PM 51.8809 -40.7479 75° East  Level FlightAware Approximate
08:53PM 51.9154 -40.5349 75° East  Level FlightAware Approximate
08:54PM 51.9495 -40.3215 75° East  Level FlightAware Approximate
08:55PM 51.9832 -40.1078 76° East  Level FlightAware Approximate
08:56PM 52.0154 -39.8936 77° East  Level FlightAware Approximate
08:57PM 52.0462 -39.6785 77° East  Level FlightAware Approximate
08:58PM 52.0766 -39.4630 77° East  Level FlightAware Approximate
08:59PM 52.1067 -39.2473 77° East  Level FlightAware Approximate
09:00PM 52.1363 -39.0313 77° East  Level FlightAware Approximate
09:01PM 52.1656 -38.8150 77° East  Level FlightAware Approximate
09:02PM 52.1944 -38.5984 78° East  Level FlightAware Approximate
09:03PM 52.2229 -38.3816 78° East  Level FlightAware Approximate
09:04PM 52.2509 -38.1644 78° East  Level FlightAware Approximate
09:05PM 52.2786 -37.9470 78° East  Level FlightAware Approximate
09:06PM 52.3058 -37.7293 78° East  Level FlightAware Approximate
09:07PM 52.3327 -37.5114 79° East  Level FlightAware Approximate
09:08PM 52.3591 -37.2932 79° East  Level FlightAware Approximate
09:09PM 52.3852 -37.0747 79° East  Level FlightAware Approximate
09:10PM 52.4108 -36.8560 79° East  Level FlightAware Approximate
09:11PM 52.4361 -36.6370 79° East  Level FlightAware Approximate
09:12PM 52.4609 -36.4178 79° East  Level FlightAware Approximate
09:13PM 52.4853 -36.1983 80° East  Level FlightAware Approximate
09:14PM 52.5093 -35.9786 80° East  Level FlightAware Approximate
09:15PM 52.5330 -35.7587 80° East  Level FlightAware Approximate
09:16PM 52.5562 -35.5385 80° East  Level FlightAware Approximate
09:17PM 52.5790 -35.3181 80° East  Level FlightAware Approximate
09:18PM 52.6014 -35.0974 80° East  Level FlightAware Approximate
09:19PM 52.6233 -34.8765 81° East  Level FlightAware Approximate
09:20PM 52.6449 -34.6555 81° East  Level FlightAware Approximate
09:21PM 52.6661 -34.4342 81° East  Level FlightAware Approximate
09:22PM 52.6868 -34.2127 81° East  Level FlightAware Approximate
09:23PM 52.7072 -33.9909 81° East  Level FlightAware Approximate
09:24PM 52.7271 -33.7690 81° East  Level FlightAware Approximate
09:25PM 52.7466 -33.5469 82° East  Level FlightAware Approximate
09:26PM 52.7657 -33.3245 82° East  Level FlightAware Approximate
09:27PM 52.7843 -33.1020 82° East  Level FlightAware Approximate
09:28PM 52.8026 -32.8793 82° East  Level FlightAware Approximate
09:29PM 52.8204 -32.6564 82° East  Level FlightAware Approximate
09:30PM 52.8379 -32.4333 83° East  Level FlightAware Approximate
09:31PM 52.8549 -32.2101 83° East  Level FlightAware Approximate
09:32PM 52.8714 -31.9867 83° East  Level FlightAware Approximate
09:33PM 52.8876 -31.7631 83° East  Level FlightAware Approximate
09:34PM 52.9033 -31.5393 83° East  Level FlightAware Approximate
09:35PM 52.9187 -31.3154 83° East  Level FlightAware Approximate
09:36PM 52.9336 -31.0913 84° East  Level FlightAware Approximate
09:37PM 52.9480 -30.8671 84° East  Level FlightAware Approximate
09:38PM 52.9621 -30.6427 84° East  Level FlightAware Approximate
09:39PM 52.9757 -30.4182 84° East  Level FlightAware Approximate
09:40PM 52.9890 -30.1936 84° East  Level FlightAware Approximate
09:41PM 53.0013 -29.9687 86° East  Level FlightAware Approximate
09:42PM 53.0105 -29.7434 86° East  Level FlightAware Approximate
09:43PM 53.0193 -29.5180 86° East  Level FlightAware Approximate
09:44PM 53.0276 -29.2925 86° East  Level FlightAware Approximate
09:45PM 53.0355 -29.0669 87° East  Level FlightAware Approximate
09:46PM 53.0430 -28.8412 87° East  Level FlightAware Approximate
09:47PM 53.0501 -28.6154 87° East  Level FlightAware Approximate
09:48PM 53.0568 -28.3896 87° East  Level FlightAware Approximate
09:49PM 53.0630 -28.1637 87° East  Level FlightAware Approximate
09:50PM 53.0687 -27.9377 87° East  Level FlightAware Approximate
09:51PM 53.0741 -27.7117 88° East  Level FlightAware Approximate
09:52PM 53.0790 -27.4856 88° East  Level FlightAware Approximate
09:53PM 53.0835 -27.2595 88° East  Level FlightAware Approximate
09:54PM 53.0876 -27.0333 88° East  Level FlightAware Approximate
09:55PM 53.0912 -26.8071 88° East  Level FlightAware Approximate
09:56PM 53.0945 -26.5809 89° East  Level FlightAware Approximate
09:57PM 53.0972 -26.3546 89° East  Level FlightAware Approximate
09:58PM 53.0996 -26.1283 89° East  Level FlightAware Approximate
09:59PM 53.1015 -25.9020 89° East  Level FlightAware Approximate
10:00PM 53.1030 -25.6757 89° East  Level FlightAware Approximate
10:01PM 53.1041 -25.4493 89° East  Level FlightAware Approximate
10:02PM 53.1047 -25.2230 90° East  Level FlightAware Approximate
10:03PM 53.1049 -24.9966 90° East  Level FlightAware Approximate
10:04PM 53.1047 -24.7702 90° East  Level FlightAware Approximate
10:05PM 53.1041 -24.5439 90° East  Level FlightAware Approximate
10:06PM 53.1030 -24.3175 90° East  Level FlightAware Approximate
10:07PM 53.1015 -24.0912 91° East  Level FlightAware Approximate
10:08PM 53.0995 -23.8648 91° East  Level FlightAware Approximate
10:09PM 53.0972 -23.6385 91° East  Level FlightAware Approximate
10:10PM 53.0944 -23.4123 91° East  Level FlightAware Approximate
10:11PM 53.0911 -23.1860 91° East  Level FlightAware Approximate
10:12PM 53.0875 -22.9598 91° East  Level FlightAware Approximate
10:13PM 53.0834 -22.7337 92° East  Level FlightAware Approximate
10:14PM 53.0789 -22.5076 92° East  Level FlightAware Approximate
10:15PM 53.0740 -22.2815 92° East  Level FlightAware Approximate
10:16PM 53.0686 -22.0555 92° East  Level FlightAware Approximate
10:17PM 53.0628 -21.8295 92° East  Level FlightAware Approximate
10:18PM 53.0566 -21.6036 93° East  Level FlightAware Approximate
10:19PM 53.0499 -21.3778 93° East  Level FlightAware Approximate
10:20PM 53.0428 -21.1521 93° East  Level FlightAware Approximate
10:21PM 53.0353 -20.9264 93° East  Level FlightAware Approximate
10:22PM 53.0274 -20.7008 93° East  Level FlightAware Approximate
10:23PM 53.0190 -20.4753 93° East  Level FlightAware Approximate
10:24PM 53.0102 -20.2498 94° East  Level FlightAware Approximate
10:25PM 53.0010 -20.0245 94° East  Level FlightAware Approximate
10:26PM 52.9987 -19.7987 91° East  Level FlightAware Approximate
10:27PM 52.9968 -19.5730 91° East  Level FlightAware Approximate
10:28PM 52.9946 -19.3493 91° East  Level FlightAware Approximate
10:29PM 52.9919 -19.1256 91° East  Level FlightAware Approximate
10:30PM 52.9888 -18.9020 91° East  Level FlightAware Approximate
10:31PM 52.9852 -18.6784 91° East  Level FlightAware Approximate
10:32PM 52.9813 -18.4549 92° East  Level FlightAware Approximate
10:33PM 52.9769 -18.2314 92° East  Level FlightAware Approximate
10:34PM 52.9721 -18.0079 92° East  Level FlightAware Approximate
10:35PM 52.9669 -17.7845 92° East  Level FlightAware Approximate
10:36PM 52.9613 -17.5611 92° East  Level FlightAware Approximate
10:37PM 52.9552 -17.3379 92° East  Level FlightAware Approximate
10:38PM 52.9488 -17.1146 93° East  Level FlightAware Approximate
10:39PM 52.9419 -16.8915 93° East  Level FlightAware Approximate
10:40PM 52.9346 -16.6684 93° East  Level FlightAware Approximate
10:41PM 52.9269 -16.4454 93° East  Level FlightAware Approximate
10:42PM 52.9188 -16.2225 93° East  Level FlightAware Approximate
10:43PM 52.9102 -15.9996 94° East  Level FlightAware Approximate
10:44PM 52.9012 -15.7769 94° East  Level FlightAware Approximate
10:45PM 52.8918 -15.5542 94° East  Level FlightAware Approximate
10:45PM 52.9980 -14.2180 94° East 535 616 37,000  Level FlightAware
10:45PM 53.0060 -14.1000 84° East 535 616 37,000 900 Level FlightAware
10:46PM 52.8820 -15.3317 94° East  Level FlightAware Approximate
10:46PM 53.0180 -13.9080 84° East 533 613 38,200  Level FlightAware
10:47PM 53.0310 -13.7120 84° East 533 613 39,000 600 Climbing FlightAware
10:48PM 53.0390 -13.5840 84° East 533 613 39,000  Level FlightAware
10:48PM 53.0540 -13.3650 83° East 525 604 39,000  Level FlightAware
10:49PM 53.0600 -13.2620 84° East 521 600 39,000  Level FlightAware
10:50PM 53.0710 -13.0810 84° East 520 598 39,000  Level FlightAware
10:52PM 53.0405 -12.6622 97° East  Level Estimated
10:53PM 53.0238 -12.4400 97° East  Level Estimated
10:53PM 53.1130 -12.3310 97° East 513 590 39,000  Level FlightAware
10:55PM 53.0815 -11.9496 98° East  Level Estimated
10:56PM 53.0626 -11.7277 98° East  Level Estimated
10:57PM 53.0433 -11.5061 98° East  Level Estimated
10:57PM 53.1650 -11.2780 98° East 524 603 39,000  Level FlightAware
10:58PM 53.1750 -11.0360 86° East 528 608 39,000  Level FlightAware
10:59PM 53.1830 -10.8530 86° East 529 609 39,000  Level FlightAware
11:01PM 53.2040 -10.3040 86° East 531 611 39,000  Level FlightAware
11:02PM 53.2120 -10.0810 86° East 530 610 39,000  Level FlightAware
11:03PM 53.2210 -9.7960 87° East 528 608 39,000 -360 Level FlightAware
11:06PM 53.1630 -9.3073 101° East  Level Estimated
11:07PM 53.1362 -9.0873 101° East  Level Estimated
11:07PM 53.2443 -8.9725 101° East 442 509 37,500  Level FlightAware UK
11:07PM 53.2450 -8.9700 101° East 519 597 39,000 -300 Climbing FlightAware
11:07PM 53.2470 -8.8772 101° East 444 511 37,400 -2,520 Descending FlightAware UK
11:07PM 53.2486 -8.8058 88° East 442 509 37,500 120 Climbing FlightAware UK
11:08PM 53.2502 -8.7344 88° East 442 509 37,500  Level FlightAware UK
11:08PM 53.2520 -8.6624 88° East 440 506 37,500  Level FlightAware UK
11:08PM 53.2535 -8.5920 88° East 436 502 37,500 3,180 Level FlightAware UK
11:08PM 53.2540 -8.5780 88° East 513 590 39,000 -240 Climbing FlightAware
11:09PM 53.2560 -8.4734 88° East 434 499 37,400 -2,580 Descending FlightAware UK
11:09PM 53.2574 -8.4018 88° East 434 499 37,400  Level FlightAware UK
11:09PM 53.2587 -8.3310 88° East 432 497 37,400 4,320 Level FlightAware UK
11:09PM 53.2590 -8.3380 88° East 511 588 39,000  Climbing FlightAware
11:10PM 53.2606 -8.2367 88° East 432 497 37,400 -2,580 Descending FlightAware UK
11:10PM 53.2619 -8.1658 88° East 430 495 37,400  Level FlightAware UK
11:10PM 53.2632 -8.0941 88° East 430 495 37,400  Level FlightAware UK
11:11PM 53.2643 -8.0243 88° East 430 495 37,400  Level FlightAware UK
11:11PM 53.2655 -7.9528 88° East 430 495 37,400  Level FlightAware UK
11:11PM 53.2666 -7.8822 88° East 432 497 37,400  Level FlightAware UK
11:12PM 53.2676 -7.8116 89° East 432 497 37,400 120 Level FlightAware UK
11:12PM 53.2687 -7.7409 89° East 432 497 37,500 120 Climbing FlightAware UK
11:12PM 53.2696 -7.6703 89° East 434 499 37,500  Level FlightAware UK
11:12PM 53.2706 -7.5997 89° East 434 499 37,500  Level FlightAware UK
11:13PM 53.2718 -7.5291 88° East 434 499 37,500  Level FlightAware UK
11:13PM 53.2726 -7.4584 89° East 436 502 37,500  Level FlightAware UK
11:13PM 53.2734 -7.3877 89° East 434 499 37,500 3,300 Level FlightAware UK
11:13PM 53.2740 -7.3750 89° East 510 587 39,000  Climbing FlightAware
11:14PM 53.2743 -7.2936 89° East 434 499 37,500 -2,760 Descending FlightAware UK
11:14PM 53.2750 -7.2228 89° East 434 499 37,500  Level FlightAware UK
11:14PM 53.2757 -7.1513 89° East 434 499 37,500  Level FlightAware UK
11:15PM 53.2764 -7.0804 89° East 436 502 37,500  Level FlightAware UK
11:15PM 53.2771 -7.0095 89° East 436 502 37,500  Level FlightAware UK
11:15PM 53.2778 -6.9386 89° East 440 506 37,500  Level FlightAware UK
11:16PM 53.2783 -6.8665 89° East 440 506 37,500 3,600 Level FlightAware UK
11:16PM 53.2780 -6.8630 89° East 514 592 39,000  Climbing FlightAware
11:16PM 53.2789 -6.7722 89° East 440 506 37,500 -2,580 Descending FlightAware UK
11:16PM 53.2794 -6.7000 89° East 442 509 37,500  Level FlightAware UK
11:17PM 53.2797 -6.6287 89° East 442 509 37,500  Level FlightAware UK
11:17PM 53.2801 -6.5573 89° East 442 509 37,500  Level FlightAware UK
11:17PM 53.2804 -6.4859 90° East 444 511 37,500  Level FlightAware UK
11:17PM 53.2808 -6.4136 89° East 444 511 37,500  Level FlightAware UK
11:18PM 53.2809 -6.3420 90° East 446 513 37,500  Level FlightAware UK
11:18PM 53.2812 -6.2703 90° East 444 511 37,500 -180 Level FlightAware UK
11:18PM 53.2813 -6.1985 90° East 438 504 37,400 -180 Descending FlightAware UK
11:19PM 53.2813 -6.1259 90° East 438 504 37,400  Level FlightAware UK
11:19PM 53.2813 -6.0539 90° East 438 504 37,400 3,180 Level FlightAware UK
11:19PM 53.2810 -6.0220 90° East 517 595 39,000  Climbing FlightAware
11:19PM 53.2813 -5.9343 90° East 442 509 37,400 -2,520 Descending FlightAware UK
11:20PM 53.2814 -5.8627 90° East 444 511 37,500 3,000 Climbing FlightAware UK
11:20PM 53.2810 -5.8310 90° East 517 595 39,000  Climbing FlightAware
11:20PM 53.2813 -5.7918 90° East 444 511 37,500 -5,640 Descending FlightAware UK
11:20PM 53.2811 -5.7441 90° East 444 511 37,500 -240 Level FlightAware UK
11:21PM 53.2809 -5.6723 90° East 442 509 37,400 2,640 Descending FlightAware UK
11:21PM 53.2810 -5.6310 90° East 518 596 39,000  Climbing FlightAware
11:21PM 53.2806 -5.5997 90° East 444 511 37,400 -4,800 Descending FlightAware UK
11:21PM 53.2804 -5.5279 90° East 444 511 37,400 120 Level FlightAware UK
11:21PM 53.2800 -5.4561 90° East 446 513 37,500 4,800 Climbing FlightAware UK
11:21PM 53.2800 -5.4740 90° East 518 596 39,000  Climbing FlightAware
11:22PM 53.2780 -5.3844 90° East 446 513 37,500 -2,700 Descending FlightAware UK
11:22PM 53.2756 -5.3122 93° East 444 511 37,500 3,060 Level FlightAware UK
11:22PM 53.2750 -5.2940 93° East 517 595 39,000  Climbing FlightAware
11:23PM 53.2714 -5.1936 93° East 446 513 37,500 -2,460 Descending FlightAware UK
11:23PM 53.2689 -5.1220 93° East 446 513 37,500 4,260 Level FlightAware UK
11:23PM 53.2690 -5.1210 93° East 517 595 39,000  Climbing FlightAware
11:23PM 53.2663 -5.0504 93° East 446 513 37,500 -2,760 Descending FlightAware UK
11:23PM 53.2640 -4.9787 93° East 444 511 37,500 3,600 Level FlightAware UK
11:24PM 53.2630 -4.9580 93° East 517 595 39,000  Climbing FlightAware
11:24PM 53.2608 -4.8824 93° East 444 511 37,500  Descending FlightAware UK
11:24PM 53.2587 -4.8172 93° East 517 595 39,000  Climbing FlightAware ADS-B
11:24PM 53.2561 -4.7386 93° East 444 511 37,500  Descending FlightAware UK
11:25PM 53.2546 -4.6954 93° East 516 594 39,000  Climbing FlightAware ADS-B
11:25PM 53.2520 -4.6188 93° East 444 511 37,500 -2,460 Descending FlightAware UK
11:25PM 53.2494 -4.5483 93° East 444 511 37,500  Level FlightAware UK
11:26PM 53.2468 -4.4771 93° East 444 511 37,500 3,060 Level FlightAware UK
11:26PM 53.2460 -4.4520 93° East 515 593 39,000 3,300 Climbing FlightAware
11:26PM 53.2430 -4.3703 93° East 515 593 39,000 -2,940 Level FlightAware ADS-B
11:26PM 53.2407 -4.3101 93° East 446 513 37,500  Descending FlightAware UK
11:27PM 53.2381 -4.2424 93° East 514 592 39,000  Climbing FlightAware ADS-B
11:27PM 53.2354 -4.1680 93° East 442 509 37,500  Descending FlightAware UK
11:27PM 53.2331 -4.1119 93° East 513 590 39,000 -240 Climbing FlightAware ADS-B
11:27PM 53.2306 -4.0491 93° East 440 506 37,400  Descending FlightAware UK
11:28PM 53.2283 -3.9930 93° East 513 590 39,000  Climbing FlightAware ADS-B
11:28PM 53.2258 -3.9319 93° East 434 499 37,400  Descending FlightAware UK
11:28PM 53.2234 -3.8727 93° East 512 589 39,000  Climbing FlightAware ADS-B
11:28PM 53.2200 -3.7897 93° East 434 499 37,400  Descending FlightAware UK
11:29PM 53.2183 -3.7531 93° East 510 587 39,000  Climbing FlightAware ADS-B
11:29PM 53.2158 -3.6949 93° East 436 502 37,400 -2,760 Descending FlightAware UK
11:29PM 53.2127 -3.6246 94° East 438 504 37,500 5,040 Climbing FlightAware UK
11:29PM 53.2125 -3.6214 94° East 509 586 39,000  Climbing FlightAware ADS-B
11:29PM 53.2096 -3.5543 94° East 438 504 37,500  Descending FlightAware UK
11:30PM 53.2070 -3.5000 94° East 511 588 39,000 -240 Climbing FlightAware ADS-B
11:30PM 53.2041 -3.4371 94° East 438 504 37,400  Descending FlightAware UK
11:30PM 53.2014 -3.3755 94° East 510 587 39,000 120 Climbing FlightAware ADS-B
11:31PM 53.1976 -3.2962 94° East 442 509 37,500  Descending FlightAware UK
11:31PM 53.1955 -3.2520 94° East 510 587 39,000  Climbing FlightAware ADS-B
11:31PM 53.1920 -3.1789 94° East 444 511 37,500  Descending FlightAware UK
11:31PM 53.1898 -3.1292 94° East 511 588 39,000  Climbing FlightAware ADS-B
11:32PM 53.1867 -3.0616 94° East 442 509 37,500  Descending FlightAware UK
11:32PM 53.1839 -3.0102 94° East 510 587 39,000  Climbing FlightAware ADS-B
11:32PM 53.1806 -2.9438 94° East 442 509 37,500  Descending FlightAware UK
11:32PM 53.1780 -2.8919 94° East 510 587 39,000  Climbing FlightAware ADS-B
11:33PM 53.1746 -2.8260 94° East 444 511 37,500  Descending FlightAware UK
11:33PM 53.1720 -2.7720 94° East 510 587 39,000  Climbing FlightAware ADS-B
11:33PM 53.1687 -2.7088 94° East 442 509 37,500  Descending FlightAware UK
11:33PM 53.1658 -2.6532 94° East 512 589 39,000  Climbing FlightAware ADS-B
11:34PM 53.1625 -2.5924 94° East 442 509 37,500  Descending FlightAware UK
11:34PM 53.1587 -2.5172 94° East 513 590 39,000 -180 Climbing FlightAware ADS-B
11:34PM 53.1550 -2.4497 94° East 442 509 37,400  Descending FlightAware UK
11:34PM 53.1519 -2.3919 94° East 512 589 39,000  Climbing FlightAware ADS-B
11:35PM 53.1485 -2.3313 94° East 440 506 37,400 -2,880 Descending FlightAware UK
11:35PM 53.1445 -2.2610 95° East 438 504 37,400 120 Level FlightAware UK
11:35PM 53.1406 -2.1900 95° East 440 506 37,500 4,560 Climbing FlightAware UK
11:35PM 53.1399 -2.1770 95° East 510 587 39,000  Climbing FlightAware ADS-B
11:36PM 53.1366 -2.1192 95° East 442 509 37,500  Descending FlightAware UK
11:36PM 53.1327 -2.0510 95° East 511 588 39,000  Climbing FlightAware ADS-B
11:36PM 53.1287 -1.9797 95° East 442 509 37,500  Descending FlightAware UK
11:36PM 53.1257 -1.9289 95° East 511 588 39,000  Climbing FlightAware ADS-B
11:37PM 53.1220 -1.8634 95° East 442 509 37,500  Descending FlightAware UK
11:37PM 53.1187 -1.8115 95° East 512 589 39,000 -240 Climbing FlightAware ADS-B
11:37PM 53.1148 -1.7465 95° East 440 506 37,400  Descending FlightAware UK
11:37PM 53.1112 -1.6838 95° East 512 589 39,000  Climbing FlightAware ADS-B
11:38PM 53.1064 -1.6060 95° East 440 506 37,400  Descending FlightAware UK
11:38PM 53.1039 -1.5652 95° East 512 589 39,000 180 Climbing FlightAware ADS-B
11:38PM 53.0990 -1.4866 95° East 442 509 37,500  Descending FlightAware UK
11:38PM 53.0977 -1.4652 95° East 512 589 39,000 4,980 Climbing FlightAware ADS-B
11:39PM 53.0938 -1.4175 98° East 512 589 39,000 -3,000 Level FlightAware ADS-B
11:39PM 53.0863 -1.3479 98° East 442 509 37,500  Descending FlightAware UK
11:39PM 53.0801 -1.2980 98° East 510 587 39,000 -240 Climbing FlightAware ADS-B
11:39PM 53.0715 -1.2333 98° East 442 509 37,400  Descending FlightAware UK
11:40PM 53.0636 -1.1831 98° East 509 586 39,000  Climbing FlightAware ADS-B
11:40PM 53.0540 -1.1211 98° East 442 509 37,400  Descending FlightAware UK
11:40PM 53.0451 -1.0652 98° East 508 585 39,000  Climbing FlightAware ADS-B
11:40PM 53.0358 -1.0075 98° East 442 509 37,400  Descending FlightAware UK
11:41PM 53.0265 -0.9500 98° East 508 585 39,000 180 Climbing FlightAware ADS-B
11:41PM 53.0173 -0.8943 98° East 442 509 37,500  Descending FlightAware UK
11:41PM 53.0079 -0.8372 98° East 508 585 39,000  Climbing FlightAware ADS-B
11:41PM 52.9950 -0.7596 98° East 442 509 37,500  Descending FlightAware UK
11:42PM 52.9885 -0.7207 98° East 509 586 39,000  Climbing FlightAware ADS-B
11:42PM 52.9760 -0.6473 98° East 442 509 37,500  Descending FlightAware UK
11:42PM 52.9689 -0.6050 98° East 509 586 39,000  Climbing FlightAware ADS-B
11:42PM 52.9570 -0.5357 98° East 442 509 37,500  Descending FlightAware UK
11:43PM 52.9498 -0.4923 98° East 509 586 39,000  Climbing FlightAware ADS-B
11:43PM 52.9378 -0.4227 98° East 442 509 37,500  Descending FlightAware UK
11:43PM 52.9296 -0.3738 98° East 509 586 39,000  Climbing FlightAware ADS-B
11:43PM 52.9186 -0.3096 98° East 442 509 37,500  Descending FlightAware UK
11:44PM 52.9080 -0.2482 98° East 509 586 39,000  Climbing FlightAware ADS-B
11:44PM 52.8952 -0.1753 98° East 442 509 37,500  Descending FlightAware UK
11:44PM 52.8875 -0.1303 98° East 509 586 39,000  Climbing FlightAware ADS-B
11:45PM 52.8757 -0.0635 98° East 442 509 37,500  Descending FlightAware UK
11:45PM 52.8639 0.0049 98° East 508 585 39,000  Climbing FlightAware ADS-B
11:45PM 52.8522 0.0714 98° East 442 509 37,500  Descending FlightAware UK
11:45PM 52.8419 0.1306 98° East 508 585 39,000  Climbing FlightAware ADS-B
11:46PM 52.8285 0.2059 98° East 444 511 37,500  Descending FlightAware UK
11:46PM 52.8212 0.2471 98° East 507 583 39,000  Climbing FlightAware ADS-B
11:46PM 52.8088 0.3171 98° East 442 509 37,500  Descending FlightAware UK
11:46PM 52.8002 0.3651 98° East 508 585 39,000  Climbing FlightAware ADS-B
11:47PM 52.7887 0.4289 98° East 442 509 37,500 -2,580 Descending FlightAware UK
11:47PM 52.7767 0.4955 107° East 440 506 37,500 3,420 Level FlightAware UK
11:47PM 52.7713 0.5261 107° East 507 583 39,000 -300 Climbing FlightAware ADS-B
11:47PM 52.7609 0.5836 107° East 440 506 37,400  Descending FlightAware UK
11:48PM 52.7509 0.6388 107° East 506 582 39,000 180 Climbing FlightAware ADS-B
11:48PM 52.7406 0.6958 107° East 442 509 37,500 -2,760 Descending FlightAware UK
11:48PM 52.7286 0.7622 107° East 442 509 37,500  Level FlightAware UK
11:49PM 52.7165 0.8284 107° East 442 509 37,500 3,180 Level FlightAware UK
11:49PM 52.7097 0.8654 107° East 506 582 39,000  Climbing FlightAware ADS-B
11:49PM 52.6961 0.9388 107° East 444 511 37,500  Descending FlightAware UK
11:49PM 52.6874 0.9861 107° East 507 583 39,000  Climbing FlightAware ADS-B
11:50PM 52.6756 1.0490 107° East 444 511 37,500  Descending FlightAware UK
11:50PM 52.6667 1.0978 107° East 506 582 39,000  Climbing FlightAware ADS-B
11:50PM 52.6550 1.1601 107° East 442 509 37,500  Descending FlightAware UK
11:50PM 52.6455 1.2117 107° East 506 582 39,000  Climbing FlightAware ADS-B
11:51PM 52.6345 1.2696 107° East 444 511 37,500  Descending FlightAware UK
11:51PM 52.6230 1.3314 107° East 507 583 39,000  Climbing FlightAware ADS-B
11:51PM 52.6095 1.4023 107° East 442 509 37,500  Descending FlightAware UK
11:51PM 52.5975 1.4663 107° East 507 583 39,000  Climbing FlightAware ADS-B
11:52PM 52.5844 1.5341 107° East 442 509 37,500  Descending FlightAware UK
11:52PM 52.5754 1.5827 107° East 506 582 39,000  Climbing FlightAware ADS-B
11:52PM 52.5635 1.6439 107° East 442 509 37,500  Descending FlightAware UK
11:53PM 52.5543 1.6931 107° East 505 581 39,000  Climbing FlightAware ADS-B
11:53PM 52.5426 1.7535 107° East 442 509 37,500  Descending FlightAware UK
11:53PM 52.5332 1.8024 107° East 505 581 39,000  Climbing FlightAware ADS-B
11:53PM 52.5215 1.8630 107° East 442 509 37,500  Descending FlightAware UK
11:54PM 52.5118 1.9131 107° East 505 581 39,000  Climbing FlightAware ADS-B
11:54PM 52.5002 1.9720 107° East 442 509 37,500 -2,700 Descending FlightAware UK
11:54PM 52.4875 2.0373 108° East 442 509 37,500 3,000 Level FlightAware UK
11:54PM 52.4796 2.0782 108° East 504 580 39,000  Climbing FlightAware ADS-B
11:55PM 52.4662 2.1459 108° East 444 511 37,500 -2,520 Descending FlightAware UK
11:55PM 52.4534 2.2110 108° East 442 509 37,500 2,700 Level FlightAware UK
11:55PM 52.4450 2.2540 108° East 502 578 39,000  Climbing FlightAware
11:55PM 52.4318 2.3201 108° East 442 509 37,500 -2,700 Descending FlightAware UK
11:56PM 52.4191 2.3851 108° East 442 509 37,500 3,720 Level FlightAware UK
11:56PM 52.4160 2.3990 108° East 502 578 39,000  Climbing FlightAware
11:56PM 52.4019 2.4714 108° East 442 509 37,500 -2,520 Descending FlightAware UK
11:56PM 52.3888 2.5361 108° East 442 509 37,500 4,080 Level FlightAware UK
11:56PM 52.3880 2.5420 108° East 501 577 39,000  Climbing FlightAware
11:57PM 52.3715 2.6224 108° East 442 509 37,500 -2,400 Descending FlightAware UK
11:57PM 52.3584 2.6870 108° East 442 509 37,500 3,600 Level FlightAware UK
11:57PM 52.3570 2.6940 108° East 502 578 39,000  Climbing FlightAware
11:57PM 52.3411 2.7733 108° East 440 506 37,500 -2,580 Descending FlightAware UK
11:58PM 52.3280 2.8378 108° East 440 506 37,500 4,980 Level FlightAware UK
11:58PM 52.3310 2.8250 108° East 501 577 39,000  Climbing FlightAware
11:58PM 52.3151 2.9023 108° East 440 506 37,500 -2,520 Descending FlightAware UK
11:58PM 52.3021 2.9667 108° East 440 506 37,500 3,300 Level FlightAware UK
11:59PM 52.2970 2.9900 108° East 500 575 39,000  Climbing FlightAware
11:59PM 52.2845 3.0523 108° East 440 506 37,500 -2,760 Descending FlightAware UK
11:59PM 52.2714 3.1165 108° East 438 504 37,500 3,000 Level FlightAware UK
11:59PM 52.2640 3.1540 108° East 499 574 39,000  Climbing FlightAware
12:00AM 52.2494 3.2233 108° East 440 506 37,500 -2,520 Descending FlightAware UK
12:00AM 52.2361 3.2873 109° East 440 506 37,500 4,080 Level FlightAware UK
12:00AM 52.2340 3.2970 109° East 499 574 39,000  Climbing FlightAware
12:00AM 52.2186 3.3726 109° East 440 506 37,500 -2,400 Descending FlightAware UK
12:01AM 52.2052 3.4373 109° East 440 506 37,500 3,600 Level FlightAware UK
12:01AM 52.2020 3.4510 109° East 499 574 39,000  Climbing FlightAware
12:01AM 52.1875 3.5225 109° East 440 506 37,500 -2,580 Descending FlightAware UK
12:01AM 52.1742 3.5864 109° East 442 509 37,500 3,900 Level FlightAware UK
12:01AM 52.1720 3.5960 109° East 499 574 39,000  Climbing FlightAware
12:02AM 52.1562 3.6714 109° East 440 506 37,500 -2,460 Descending FlightAware UK
12:02AM 52.1427 3.7345 109° East 440 506 37,500 4,260 Level FlightAware UK
12:02AM 52.1420 3.7360 109° East 500 575 39,000  Climbing FlightAware
12:02AM 52.1292 3.7983 109° East 440 506 37,500 -2,760 Descending FlightAware UK
12:03AM 52.1154 3.8628 109° East 440 506 37,500 3,000 Level FlightAware UK
12:03AM 52.1070 3.9000 109° East 499 574 39,000  Climbing FlightAware
12:03AM 52.0931 3.9690 109° East 442 509 37,500 -2,520 Descending FlightAware UK
12:03AM 52.0794 4.0325 109° East 442 509 37,500 4,080 Level FlightAware UK
12:03AM 52.0770 4.0410 109° East 499 574 39,000  Climbing FlightAware
12:04AM 52.0612 4.1173 109° East 442 509 37,500 -2,400 Descending FlightAware UK
12:04AM 52.0474 4.1808 109° East 444 511 37,500 3,600 Level FlightAware UK
12:04AM 52.0440 4.1970 109° East 500 575 39,000  Climbing FlightAware
12:04AM 52.0290 4.2655 109° East 444 511 37,500 -2,580 Descending FlightAware UK
12:05AM 52.0151 4.3289 110° East 444 511 37,500 3,900 Level FlightAware UK
12:05AM 52.0130 4.3360 110° East 499 574 39,000  Climbing FlightAware
12:05AM 51.9963 4.4133 110° East 444 511 37,500 -2,460 Descending FlightAware UK
12:05AM 51.9826 4.4768 109° East 444 511 37,500 3,420 Level FlightAware UK
12:06AM 51.9780 4.5010 109° East 498 573 39,000  Climbing FlightAware
12:06AM 51.9641 4.5620 109° East 444 511 37,500 -2,700 Descending FlightAware UK
12:06AM 51.9505 4.6253 109° East 444 511 37,500 3,720 Level FlightAware UK
12:06AM 51.9460 4.6420 109° East 498 573 39,000  Climbing FlightAware
12:07AM 51.9321 4.7094 109° East 444 511 37,500 -2,520 Descending FlightAware UK
12:07AM 51.9187 4.7728 109° East 442 509 37,500 4,080 Level FlightAware UK
12:07AM 51.9160 4.7810 109° East 497 572 39,000  Climbing FlightAware
12:07AM 51.9003 4.8567 109° East 444 511 37,500 -2,400 Descending FlightAware UK
12:08AM 51.8859 4.9191 110° East 444 511 37,500 3,600 Level FlightAware UK
12:08AM 51.8820 4.9310 110° East 496 571 39,000  Climbing FlightAware
12:08AM 51.8683 5.0036 110° East 442 509 37,500 -2,580 Descending FlightAware UK
12:08AM 51.8541 5.0662 110° East 442 509 37,500 3,900 Level FlightAware UK
12:08AM 51.8490 5.0770 110° East 496 571 39,000  Climbing FlightAware
12:09AM 51.8330 5.1478 110° East 442 509 37,500 -2,460 Descending FlightAware UK
12:09AM 51.8190 5.2104 110° East 440 506 37,500 4,260 Level FlightAware UK
12:09AM 51.8190 5.2100 110° East 496 571 39,000  Climbing FlightAware
12:09AM 51.8055 5.2733 110° East 440 506 37,500 -2,940 Descending FlightAware UK
12:10AM 51.7902 5.3350 112° Southeast 440 506 37,400 3,000 Descending FlightAware UK
12:10AM 51.7830 5.3680 112° Southeast 495 570 39,000 120 Climbing FlightAware
12:10AM 51.7560 5.4796 112° Southeast 440 506 37,500  Descending FlightAware UK
12:10AM 51.7510 5.5080 112° Southeast 494 568 39,000 1,620 Climbing FlightAware
12:11AM 51.7160 5.6600 110° East 494 568 39,000 -1,500 Level FlightAware
12:11AM 51.6992 5.7295 110° East 440 506 37,500 -2,580 Descending FlightAware UK
12:12AM 51.6833 5.7904 113° Southeast 440 506 37,500 3,900 Level FlightAware UK
12:12AM 51.6850 5.7930 113° Southeast 494 568 39,000 4,500 Climbing FlightAware
12:12AM 51.6670 5.8470 118° Southeast 491 565 39,000 -3,120 Level FlightAware
12:12AM 51.6536 5.9136 118° Southeast 440 506 37,400  Descending FlightAware UK
12:13AM 51.6110 5.9600 118° Southeast 490 564 39,000 1,380 Climbing FlightAware
12:14AM 51.5490 6.0910 127° Southeast 489 563 39,000  Level FlightAware
12:14AM 51.4940 6.1990 129° Southeast 488 562 39,000  Level FlightAware
12:15AM 51.4360 6.3100 130° Southeast 488 562 39,000  Level FlightAware
12:16AM 51.3780 6.4200 130° Southeast 488 562 39,000  Level FlightAware
12:16AM 51.3130 6.5440 130° Southeast 488 562 39,000  Level FlightAware
12:17AM 51.2450 6.6720 130° Southeast 488 562 39,000  Level FlightAware
12:18AM 51.1900 6.7760 130° Southeast 489 563 39,000  Level FlightAware
12:18AM 51.1310 6.8850 131° Southeast 488 562 39,000  Level FlightAware
12:19AM 51.0630 7.0110 131° Southeast 488 562 39,000  Level FlightAware
12:20AM 51.0030 7.1200 131° Southeast 487 560 39,000  Level FlightAware
12:21AM 50.9400 7.2370 130° Southeast 488 562 39,000  Level FlightAware
12:21AM 50.8780 7.3490 131° Southeast 488 562 39,000  Level FlightAware
12:22AM 50.8140 7.4560 133° Southeast 488 562 39,000  Level FlightAware
12:23AM 50.7460 7.5710 133° Southeast 488 562 39,000  Level FlightAware
12:23AM 50.6930 7.6610 133° Southeast 492 566 39,000  Level FlightAware
12:24AM 50.6170 7.7890 133° Southeast 495 570 39,000  Level FlightAware
12:25AM 50.5550 7.8930 133° Southeast 498 573 39,000  Level FlightAware
12:25AM 50.4920 7.9980 133° Southeast 497 572 39,000  Level FlightAware
12:26AM 50.4250 8.1100 133° Southeast 496 571 39,000 -1,020 Level FlightAware
12:29AM 50.2204 8.4972 129° Southeast  Level Estimated
12:29AM 50.1110 8.6260 129° Southeast 499 574 35,100  Level FlightAware
12:30AM 50.0480 8.7290 134° Southeast 493 567 35,000 -120 Descending FlightAware
12:31AM 49.9840 8.8330 134° Southeast 497 572 35,000  Level FlightAware
12:32AM 49.9080 8.9650 132° Southeast 499 574 35,000  Level FlightAware
12:32AM 49.8440 9.0740 132° Southeast 502 578 35,000  Level FlightAware
12:33AM 49.7820 9.1780 133° Southeast 504 580 35,000  Level FlightAware
12:34AM 49.7120 9.2970 132° Southeast 506 582 35,000 -660 Level FlightAware
12:34AM 49.6470 9.4070 132° Southeast 500 575 34,100 -1,680 Descending FlightAware
12:35AM 49.5990 9.4870 133° Southeast 496 571 32,900 -2,640 Descending FlightAware
12:36AM 49.5220 9.6160 133° Southeast 490 564 30,400 -2,760 Descending FlightAware
12:36AM 49.4600 9.7170 133° Southeast 479 551 28,800 -2,640 Descending FlightAware
12:37AM 49.3910 9.8320 133° Southeast 476 548 26,700 -2,400 Descending FlightAware
12:38AM 49.3320 9.9290 133° Southeast 451 519 25,400 -1,320 Descending FlightAware
12:38AM 49.2750 10.0230 133° Southeast 455 524 25,000 -300 Descending FlightAware
12:39AM 49.2100 10.1280 133° Southeast 453 521 25,000  Level FlightAware
12:40AM 49.1540 10.2190 133° Southeast 453 521 25,000  Level FlightAware
12:41AM 49.0950 10.3160 133° Southeast 455 524 25,000 -360 Level FlightAware
12:41AM 49.0410 10.4020 134° Southeast 452 520 24,500 -1,440 Descending FlightAware
12:42AM 48.9760 10.5060 134° Southeast 439 505 23,000 -1,980 Descending FlightAware
12:43AM 48.9280 10.5830 133° Southeast 421 484 21,900 -2,220 Descending FlightAware
12:43AM 48.8710 10.6730 134° Southeast 410 472 20,100 -2,400 Descending FlightAware
12:44AM 48.8150 10.7610 134° Southeast 408 470 18,300 -2,220 Descending FlightAware
12:45AM 48.7440 10.8740 134° Southeast 386 444 16,400 -2,220 Descending FlightAware
12:46AM 48.6950 10.9490 135° Southeast 374 430 15,000 -2,040 Descending FlightAware
12:46AM 48.6560 11.0040 137° Southeast 369 425 13,900 -1,920 Descending FlightAware
12:47AM 48.5950 11.0870 138° Southeast 353 406 12,300 -1,740 Descending FlightAware
12:48AM 48.5400 11.1610 138° Southeast 348 400 11,300 -900 Descending FlightAware
12:49AM 48.4910 11.2510 129° Southeast 354 407 11,000 -240 Descending FlightAware
12:49AM 48.4840 11.3350 97° East 353 406 11,000  Level FlightAware
12:50AM 48.4820 11.4470 92° East 353 406 11,000  Level FlightAware
12:51AM 48.4790 11.5740 92° East 353 406 11,000  Level FlightAware
12:51AM 48.4770 11.6740 92° East 353 406 11,000 -540 Level FlightAware
12:52AM 48.4740 11.7820 92° East 334 384 10,300 -720 Descending FlightAware
12:53AM 48.4720 11.8680 92° East 302 348 10,000 -1,020 Descending FlightAware
12:53AM 48.4710 11.9190 92° East 286 329 9,200 -2,340 Descending FlightAware
12:54AM 48.4690 11.9800 93° East 286 329 7,900 -2,580 Descending FlightAware
12:54AM 48.4690 12.0070 90° East 287 330 7,300 -1,920 Descending FlightAware
12:54AM 48.4710 12.0700 87° East 288 331 6,500 -1,560 Descending FlightAware
12:55AM 48.4750 12.1190 83° East 276 318 5,900 -1,680 Descending FlightAware
12:55AM 48.4790 12.1750 84° East 267 307 5,000 -1,860 Descending FlightAware
12:56AM 48.4800 12.2210 88° East 261 300 4,200 -1,680 Descending FlightAware
12:56AM 48.4710 12.2440 121° Southeast 248 285 3,900 -1,020 Descending FlightAware
12:56AM 48.4570 12.2570 148° Southeast 235 270 3,700 -480 Descending FlightAware
12:57AM 48.4320 12.2630 171° South 223 257 3,600 -120 Descending FlightAware
12:57AM 48.4060 12.2380 213° Southwest 217 250 3,600  Level FlightAware
12:58AM 48.3950 12.1970 248° West 208 239 3,600 60 Level FlightAware
12:58AM 48.3920 12.1610 263° West 214 246 3,700  Climbing FlightAware
12:59AM 48.3890 12.1180 264° West 203 234 3,600 -120 Descending FlightAware
12:59AM 48.3860 12.0800 263° West 175 201 3,600  Level FlightAware
12:59AM 48.3850 12.0670 263° West 176 203 3,600  Level FlightAware
01:00AM 48.3830 12.0310 265° West 176 203 3,600  Level FlightAware
01:00AM 48.3810 12.0130 261° West 176 203 3,600 -600 Level FlightAware
01:00AM 48.3790 11.9820 264° West 174 200 3,200 -1,020 Descending FlightAware
01:01AM 48.3760 11.9460 263° West 174 200 2,700 -900 Descending FlightAware
01:01AM 48.3740 11.9120 265° West 152 175 2,300 -840 Descending FlightAware
01:02AM 48.3730 11.8970 264° West 138 159 2,100 -780 Descending FlightAware
01:02AM 48.3710 11.8730 263° West 135 155 1,800 -660 Descending FlightAware
01:03AM 48.3690 11.8470 263° West 128 147 1,500 -660 Descending FlightAware
01:03AM 48.3670 11.8230 263° West 136 157 1,200 -720 Descending FlightAware